Keauhou, HI (96739)

8:03 PM HST on August 27, 2015 (GMT -1000)
Pualani Estates | | Change Station
CLOSE
Current Station
Personal Weather Station
Location: Kailua-Kona, HI
Elevation: 420 ft
Nearby Weather Stations

Elev 420 ft 19.62 °N, 155.97 °W | Updated 10 seconds ago

Overcast
Overcast
80.4 °F
Feels Like 86 °F
N
0.0
Wind Variable Wind from SSE
Gusts 0.0 mph

Today
High -- | Low -- °F
--% Chance of Precip.
Yesterday
High -- | Low -- °F
Precip. -- in
6:07 AM 6:43 PM
Waxing Gibbous, 97% visible
Pressure 29.84 in
Visibility 10.0 miles
Clouds Mostly Cloudy 4700 ft
Overcast 7000 ft
Heat Index 86 °F
Dew Point 75 °F
Humidity 83%
Rainfall 0.00 in
Snow Depth Not available.
UV 0.0 out of 12
Pollen Not available.
Air Quality Not available.
Flu Activity Not available.
METAR PHKO 280553Z 16007KT 10SM BKN047 OVC070 29/23 A2984 RMK AO2 SLP105 T02890228 10311 20289 53012
Pressure 29.84 in
Visibility 10.0 miles
Clouds Mostly Cloudy 4700 ft
Overcast 7000 ft
Heat Index 86 °F
Dew Point 75 °F
Humidity 83%
Rainfall 0.00 in
Snow Depth Not available.
UV 0.0 out of 12
Pollen Not available.
Air Quality Not available.
Flu Activity Not available.
METAR PHKO 280553Z 16007KT 10SM BKN047 OVC070 29/23 A2984 RMK AO2 SLP105 T02890228 10311 20289 53012

10-Day Weather Forecast

×

Almanac

Astronomy

Aug. 27, 2015 Rise Set
Actual Time
Civil Twilight
Nautical Twilight
Astronomical Twilight
Moon
Length of Visible Light
Length of Day
Tomorrow will be .
, % of the Moon is Illuminated

Today's Extremes

State Highs State Lows

Community

WunderPhotos

Upload Photos

1,850,341 photos uploaded!

WunderBlogs® & News

Nearby

Air Quality

  Air Quality AQ Index Pollutant
Not available.

Snow Depth

Station Depth Elevation

Earthquake Activity

City Distance Mag. Time & Date
Minimum magnitude displayed is 2.5.

Coastal Water Temperatures

Place Temperature

Stations

Nearby Weather Stations

Station Location Temp. Windchill Dew Point Humidity Wind Precip. Elev Updated Type